Airport View

Enter AWOS ICAO identifier for current METAR.

ex. KFNL

KAID 200342Z AUTO 00000KT 10SM CLR 00/M02 A3031 RMK AO2 T00001020

20 Mar 2019 03:38

Frequency: 128.55

Phone: 765-378-1510

Other Area AWOS: KMIE - KMQJ - KMZZ - KTYQ

TAF AMD KIND 200205Z 2002/2106 13003KT P6SM BKN250 FM201600 19011G21KT P6SM VCSH OVC070 FM202100 22014G24KT 6SM -SHRA BR OVC045 FM202300 22012KT 6SM -SHRA BR OVC025 FM210500 25007KT 6SM -SHRA BR OVC019